createdAt,value
2017-09-19T00:01:29.466Z,8.20
2017-09-19T00:03:55.889Z,8.10
2017-09-19T00:06:22.365Z,8.30
2017-09-19T00:08:48.793Z,8.40
2017-09-19T00:11:15.250Z,8.50
2017-09-19T00:13:41.708Z,8.60
2017-09-19T00:16:08.139Z,8.60
2017-09-19T00:18:34.599Z,8.60
2017-09-19T00:21:01.769Z,8.60
2017-09-19T00:23:28.188Z,8.60
2017-09-19T00:25:54.668Z,8.70
2017-09-19T00:28:21.853Z,8.40
2017-09-19T00:30:48.321Z,8.50
2017-09-19T00:33:14.756Z,8.50
2017-09-19T00:35:41.242Z,8.50
2017-09-19T00:38:07.669Z,8.30
2017-09-19T00:40:34.917Z,8.50
2017-09-19T00:43:01.358Z,8.50
2017-09-19T00:45:27.861Z,8.40
2017-09-19T00:47:54.301Z,8.30
2017-09-19T00:50:20.782Z,8.20
2017-09-19T00:52:47.979Z,7.90
2017-09-19T00:55:14.421Z,7.90
2017-09-19T00:57:41.695Z,8.00
2017-09-19T01:00:08.940Z,8.00
2017-09-19T01:02:36.134Z,8.00
2017-09-19T01:05:02.577Z,8.00
2017-09-19T01:07:29.017Z,7.90
2017-09-19T01:09:55.464Z,7.70
2017-09-19T01:12:21.950Z,7.90
2017-09-19T01:14:48.409Z,7.80
2017-09-19T01:17:14.865Z,7.70
2017-09-19T01:19:41.338Z,7.60
2017-09-19T01:22:08.537Z,7.60
2017-09-19T01:24:35.046Z,7.60
2017-09-19T01:27:01.513Z,7.50
2017-09-19T01:29:28.003Z,7.50
2017-09-19T01:31:54.479Z,7.50
2017-09-19T01:34:20.921Z,7.60
2017-09-19T01:36:47.353Z,7.60
2017-09-19T01:39:13.802Z,7.80
2017-09-19T01:41:41.061Z,8.00
2017-09-19T01:44:07.524Z,8.00
2017-09-19T01:46:33.950Z,8.20
2017-09-19T01:49:01.137Z,8.30
2017-09-19T01:51:27.557Z,8.30
2017-09-19T01:53:54.050Z,8.30
2017-09-19T01:56:21.222Z,8.40
2017-09-19T01:58:47.649Z,8.40
2017-09-19T02:01:14.130Z,8.40
2017-09-19T02:03:40.541Z,8.40
2017-09-19T02:06:06.969Z,8.30
2017-09-19T02:08:33.498Z,8.10
2017-09-19T02:10:59.937Z,8.20
2017-09-19T02:13:26.355Z,8.30
2017-09-19T02:15:52.777Z,8.40
2017-09-19T02:18:19.950Z,8.50
2017-09-19T02:20:46.354Z,8.40
2017-09-19T02:23:13.609Z,8.50
2017-09-19T02:25:40.765Z,8.50
2017-09-19T02:28:07.176Z,8.50
2017-09-19T02:30:34.366Z,8.50
2017-09-19T02:33:01.553Z,8.50
2017-09-19T02:35:28.010Z,8.50
2017-09-19T02:37:55.187Z,8.60
2017-09-19T02:40:22.412Z,8.60
2017-09-19T02:42:48.839Z,8.60
2017-09-19T02:45:15.264Z,8.70
2017-09-19T02:47:41.681Z,8.70
2017-09-19T02:50:08.087Z,8.60
2017-09-19T02:52:34.567Z,8.50
2017-09-19T02:55:00.969Z,8.60
2017-09-19T02:57:27.403Z,8.60
2017-09-19T02:59:53.811Z,8.70
2017-09-19T03:02:20.277Z,8.60
2017-09-19T03:04:46.677Z,8.70
2017-09-19T03:07:13.121Z,8.70
2017-09-19T03:09:39.600Z,8.50
2017-09-19T03:12:06.006Z,8.40
2017-09-19T03:14:32.433Z,8.30
2017-09-19T03:16:58.897Z,8.30
2017-09-19T03:19:26.087Z,8.30
2017-09-19T03:21:52.527Z,8.30
2017-09-19T03:24:18.932Z,8.20
2017-09-19T03:26:46.092Z,8.10
2017-09-19T03:29:13.294Z,8.10
2017-09-19T03:31:39.717Z,8.10
2017-09-19T03:34:06.149Z,8.10
2017-09-19T03:36:32.562Z,8.20
2017-09-19T03:38:59.014Z,8.30
2017-09-19T03:41:25.453Z,8.20
2017-09-19T03:43:51.990Z,8.00
2017-09-19T03:46:18.403Z,8.10
2017-09-19T03:48:45.574Z,8.30
2017-09-19T03:51:12.002Z,8.30
2017-09-19T03:53:38.473Z,8.30
2017-09-19T03:56:04.892Z,8.30
2017-09-19T03:58:31.318Z,8.40
2017-09-19T04:00:57.857Z,8.30
2017-09-19T04:03:25.068Z,8.10
2017-09-19T04:05:51.490Z,8.10
2017-09-19T04:08:17.960Z,8.00
2017-09-19T04:10:44.410Z,7.80
2017-09-19T04:13:10.825Z,7.80
2017-09-19T04:15:37.264Z,7.90
2017-09-19T04:18:03.746Z,7.90
2017-09-19T04:20:30.928Z,7.90
2017-09-19T04:22:57.350Z,7.90
2017-09-19T04:25:23.830Z,7.90
2017-09-19T04:27:50.325Z,8.00
2017-09-19T04:30:16.745Z,8.00
2017-09-19T04:32:43.209Z,8.10
2017-09-19T04:35:09.634Z,8.10
2017-09-19T04:37:36.082Z,8.20
2017-09-19T04:40:02.519Z,8.10
2017-09-19T04:42:28.969Z,8.10
2017-09-19T04:44:55.471Z,8.20
2017-09-19T04:47:21.957Z,8.30
2017-09-19T04:49:49.162Z,8.20
2017-09-19T04:52:15.573Z,8.20
2017-09-19T04:54:42.005Z,8.20
2017-09-19T04:57:08.488Z,8.30
2017-09-19T04:59:34.973Z,8.20
2017-09-19T05:02:01.449Z,8.20
2017-09-19T05:04:27.881Z,8.40
2017-09-19T05:06:54.353Z,8.30
2017-09-19T05:09:21.510Z,8.30
2017-09-19T05:11:48.657Z,8.30
2017-09-19T05:14:15.822Z,8.30
2017-09-19T05:16:42.249Z,8.30
2017-09-19T05:19:08.650Z,8.30
2017-09-19T05:21:35.780Z,8.20
2017-09-19T05:24:02.233Z,8.20
2017-09-19T05:26:28.727Z,8.10
2017-09-19T05:28:55.306Z,8.10
2017-09-19T05:31:21.771Z,8.20
2017-09-19T05:33:48.165Z,8.20
2017-09-19T05:36:15.314Z,8.20
2017-09-19T05:38:41.797Z,8.20
2017-09-19T05:41:08.214Z,8.30
2017-09-19T05:43:34.669Z,8.30
2017-09-19T05:46:01.085Z,8.30
2017-09-19T05:48:27.529Z,8.30
2017-09-19T05:50:53.992Z,8.30
2017-09-19T05:53:20.541Z,8.40
2017-09-19T05:55:46.953Z,8.40
2017-09-19T05:58:13.418Z,8.40
2017-09-19T06:00:40.594Z,8.50
2017-09-19T06:03:07.020Z,8.40
2017-09-19T06:05:33.482Z,8.50
2017-09-19T06:07:59.918Z,8.50
2017-09-19T06:10:26.330Z,8.50
2017-09-19T06:12:52.798Z,8.50
2017-09-19T06:15:19.258Z,8.50
2017-09-19T06:17:45.735Z,8.50
2017-09-19T06:20:12.217Z,8.60
2017-09-19T06:22:38.691Z,8.60
2017-09-19T06:25:05.129Z,8.60
2017-09-19T06:27:31.585Z,8.70
2017-09-19T06:29:57.999Z,8.70
2017-09-19T06:32:24.449Z,8.70
2017-09-19T06:34:50.903Z,8.80
2017-09-19T06:37:17.333Z,8.70
2017-09-19T06:39:43.773Z,8.70
2017-09-19T06:42:10.977Z,8.90
2017-09-19T06:44:37.408Z,8.90
2017-09-19T06:47:03.846Z,9.00
2017-09-19T06:49:30.301Z,9.00
2017-09-19T06:51:56.801Z,9.10
2017-09-19T06:54:24.023Z,9.40
2017-09-19T06:56:50.477Z,9.40
2017-09-19T06:59:17.669Z,9.50
2017-09-19T07:01:44.083Z,9.60
2017-09-19T07:04:10.501Z,9.60
2017-09-19T07:06:36.959Z,9.70
2017-09-19T07:09:03.497Z,9.70
2017-09-19T07:11:29.985Z,9.70
2017-09-19T07:13:57.136Z,9.80
2017-09-19T07:16:23.612Z,9.80
2017-09-19T07:18:50.023Z,9.90
2017-09-19T07:21:16.533Z,9.70
2017-09-19T07:23:43.713Z,9.90
2017-09-19T07:26:10.148Z,9.80
2017-09-19T07:28:36.561Z,9.90
2017-09-19T07:31:03.717Z,9.90
2017-09-19T07:33:30.161Z,9.90
2017-09-19T07:35:56.568Z,10.00
2017-09-19T07:38:23.737Z,10.00
2017-09-19T07:40:50.219Z,10.00
2017-09-19T07:43:16.637Z,10.10
2017-09-19T07:45:43.108Z,10.30
2017-09-19T07:48:10.304Z,10.60
2017-09-19T07:50:36.698Z,10.60
2017-09-19T07:53:03.858Z,11.00
2017-09-19T07:55:31.042Z,11.10
2017-09-19T07:57:57.503Z,11.10
2017-09-19T08:00:23.944Z,11.40
2017-09-19T08:02:51.146Z,12.90
2017-09-19T08:05:17.590Z,12.90
2017-09-19T08:07:44.046Z,13.80
2017-09-19T08:10:10.598Z,14.60
2017-09-19T08:12:37.085Z,14.60
2017-09-19T08:15:03.522Z,14.80
2017-09-19T08:17:29.942Z,14.70
2017-09-19T08:19:56.364Z,14.40
2017-09-19T08:22:22.828Z,14.00
2017-09-19T08:24:49.292Z,13.60
2017-09-19T08:27:15.724Z,13.40
2017-09-19T08:29:42.149Z,13.40
2017-09-19T08:32:08.590Z,13.20
2017-09-19T08:34:35.742Z,13.00
2017-09-19T08:37:02.200Z,12.90
2017-09-19T08:39:29.405Z,13.10
2017-09-19T08:41:55.817Z,13.00
2017-09-19T08:44:22.228Z,12.90
2017-09-19T08:46:49.394Z,12.70
2017-09-19T08:49:15.894Z,12.70
2017-09-19T08:51:43.047Z,12.50
2017-09-19T08:54:09.445Z,12.50
2017-09-19T08:56:35.912Z,12.40
2017-09-19T08:59:03.082Z,12.50
2017-09-19T09:01:29.521Z,12.50
2017-09-19T09:03:55.977Z,12.60
2017-09-19T09:06:22.440Z,12.70
2017-09-19T09:08:49.665Z,12.60
2017-09-19T09:11:16.092Z,12.50
2017-09-19T09:13:43.271Z,12.10
2017-09-19T09:16:09.721Z,12.10
2017-09-19T09:18:36.925Z,11.70
2017-09-19T09:21:03.364Z,11.70
2017-09-19T09:23:29.821Z,11.60
2017-09-19T09:25:56.265Z,11.70
2017-09-19T09:28:22.673Z,11.80
2017-09-19T09:30:49.093Z,11.80
2017-09-19T09:33:15.541Z,12.00
2017-09-19T09:35:42.685Z,12.30
2017-09-19T09:38:09.093Z,12.30
2017-09-19T09:40:35.532Z,12.30
2017-09-19T09:43:01.975Z,12.30
2017-09-19T09:45:28.429Z,12.50
2017-09-19T09:47:54.856Z,12.40
2017-09-19T09:50:21.289Z,12.40
2017-09-19T09:52:47.700Z,12.50
2017-09-19T09:55:14.108Z,12.60
2017-09-19T09:57:40.569Z,12.50
2017-09-19T10:00:07.066Z,12.50
2017-09-19T10:02:33.504Z,12.70
2017-09-19T10:04:59.964Z,12.90
2017-09-19T10:07:26.379Z,13.40
2017-09-19T10:09:52.798Z,13.40
2017-09-19T10:12:19.269Z,13.50
2017-09-19T10:14:45.709Z,13.60
2017-09-19T10:17:12.133Z,13.50
2017-09-19T10:19:38.613Z,14.10
2017-09-19T10:22:05.012Z,14.80
2017-09-19T10:24:31.455Z,15.00
2017-09-19T10:26:57.914Z,15.10
2017-09-19T10:29:25.129Z,16.00
2017-09-19T10:31:52.301Z,16.60
2017-09-19T10:34:18.749Z,16.60
2017-09-19T10:36:45.941Z,17.60
2017-09-19T10:39:12.389Z,17.60
2017-09-19T10:41:38.869Z,17.90
2017-09-19T10:44:06.056Z,17.80
2017-09-19T10:46:32.489Z,17.80
2017-09-19T10:48:58.969Z,18.20
2017-09-19T10:51:26.169Z,17.80
2017-09-19T10:53:52.565Z,17.80
2017-09-19T10:56:19.078Z,17.60
2017-09-19T10:58:45.505Z,17.20
2017-09-19T11:01:11.918Z,16.80
2017-09-19T11:03:38.350Z,16.60
2017-09-19T11:06:04.844Z,16.70
2017-09-19T11:08:31.334Z,17.10
2017-09-19T11:10:58.522Z,16.90
2017-09-19T11:13:25.695Z,17.00
2017-09-19T11:15:52.165Z,17.10
2017-09-19T11:18:18.614Z,16.80
2017-09-19T11:20:45.030Z,16.70
2017-09-19T11:23:11.513Z,16.70
2017-09-19T11:25:38.732Z,16.80
2017-09-19T11:28:05.165Z,16.80
2017-09-19T11:30:31.612Z,16.70
2017-09-19T11:32:58.033Z,16.50
2017-09-19T11:35:24.493Z,16.40
2017-09-19T11:37:51.645Z,16.30
2017-09-19T11:40:18.108Z,16.30
2017-09-19T11:42:44.545Z,16.40
2017-09-19T11:45:10.969Z,16.40
2017-09-19T11:47:37.442Z,16.50
2017-09-19T11:50:03.875Z,16.40
2017-09-19T11:52:30.336Z,16.40
2017-09-19T11:54:57.574Z,16.40
2017-09-19T11:57:24.810Z,16.40
2017-09-19T11:59:51.221Z,16.50
2017-09-19T12:02:17.637Z,16.50
2017-09-19T12:04:44.129Z,16.40
2017-09-19T12:07:11.366Z,16.40
2017-09-19T12:09:38.585Z,16.40
2017-09-19T12:12:04.992Z,16.40
2017-09-19T12:14:31.444Z,16.00
2017-09-19T12:16:57.898Z,15.50
2017-09-19T12:19:24.345Z,15.40
2017-09-19T12:21:50.822Z,15.20
2017-09-19T12:24:18.028Z,15.00
2017-09-19T12:26:44.481Z,15.00
2017-09-19T12:29:10.918Z,14.70
2017-09-19T12:31:37.398Z,14.70
2017-09-19T12:34:03.840Z,14.30
2017-09-19T12:36:30.262Z,13.90
2017-09-19T12:38:56.715Z,13.60
2017-09-19T12:41:23.128Z,13.00
2017-09-19T12:43:49.646Z,12.50
2017-09-19T12:46:16.062Z,12.60
2017-09-19T12:48:42.516Z,12.40
2017-09-19T12:51:08.989Z,12.30
2017-09-19T12:53:35.406Z,12.00
2017-09-19T12:56:01.881Z,11.90
2017-09-19T12:58:29.065Z,11.10
2017-09-19T13:00:55.513Z,11.00
2017-09-19T13:03:22.025Z,11.10
2017-09-19T13:05:49.182Z,11.00
2017-09-19T13:08:15.598Z,10.90
2017-09-19T13:10:42.037Z,11.20
2017-09-19T13:13:08.442Z,11.10
2017-09-19T13:15:34.945Z,11.40
2017-09-19T13:18:02.169Z,11.80
2017-09-19T13:20:28.609Z,11.70
2017-09-19T13:22:55.088Z,12.00
2017-09-19T13:25:21.635Z,12.00
2017-09-19T13:27:48.098Z,12.20
2017-09-19T13:30:14.594Z,12.30
2017-09-19T13:32:53.273Z,12.20
2017-09-19T13:35:19.661Z,12.30
2017-09-19T13:37:46.852Z,11.80
2017-09-19T13:40:13.265Z,11.80
2017-09-19T13:42:39.709Z,11.90
2017-09-19T13:45:06.273Z,12.00
2017-09-19T13:47:32.711Z,12.20
2017-09-19T13:49:59.114Z,12.20
2017-09-19T13:52:25.560Z,12.30
2017-09-19T13:54:52.021Z,12.10
2017-09-19T13:57:18.493Z,12.20
2017-09-19T13:59:45.733Z,12.10
2017-09-19T14:02:12.888Z,12.20
2017-09-19T14:04:40.053Z,12.10
2017-09-19T14:07:06.510Z,12.10
2017-09-19T14:09:32.945Z,12.30
2017-09-19T14:11:59.416Z,12.20
2017-09-19T14:14:25.941Z,12.10
2017-09-19T14:16:52.354Z,12.00
2017-09-19T14:19:19.701Z,12.20
2017-09-19T14:21:46.138Z,12.40
2017-09-19T14:24:12.586Z,12.50
2017-09-19T14:26:39.069Z,12.50
2017-09-19T14:29:06.209Z,12.80
2017-09-19T14:31:33.395Z,12.70
2017-09-19T14:33:59.847Z,12.70
2017-09-19T14:36:27.069Z,12.90
2017-09-19T14:38:53.498Z,12.90
2017-09-19T14:41:19.971Z,13.00
2017-09-19T14:43:46.417Z,12.90
2017-09-19T14:46:12.896Z,12.70
2017-09-19T14:48:39.353Z,12.50
2017-09-19T14:51:05.798Z,12.30
2017-09-19T14:53:32.402Z,12.50
2017-09-19T14:55:58.849Z,12.40
2017-09-19T14:58:25.265Z,12.30
2017-09-19T15:00:51.719Z,12.40
2017-09-19T15:03:18.149Z,12.50
2017-09-19T15:05:44.557Z,12.40
2017-09-19T15:08:11.057Z,12.30
2017-09-19T15:10:37.485Z,12.40
2017-09-19T15:13:03.956Z,12.50
2017-09-19T15:15:30.414Z,12.50
2017-09-19T15:17:56.845Z,12.60
2017-09-19T15:20:23.316Z,12.70
2017-09-19T15:22:49.910Z,12.70
2017-09-19T15:25:16.353Z,12.80
2017-09-19T15:27:42.786Z,12.70
2017-09-19T15:30:09.207Z,12.80
2017-09-19T15:32:35.670Z,12.90
2017-09-19T15:35:02.167Z,12.50
2017-09-19T15:37:28.618Z,12.60
2017-09-19T15:39:55.037Z,12.70
2017-09-19T15:42:21.534Z,12.60
2017-09-19T15:44:48.829Z,12.50
2017-09-19T15:47:15.339Z,12.40
2017-09-19T15:49:41.753Z,12.20
2017-09-19T15:52:08.964Z,12.40
2017-09-19T15:54:35.438Z,12.40
2017-09-19T15:57:01.884Z,12.50
2017-09-19T15:59:29.066Z,12.60
2017-09-19T16:01:55.494Z,12.60
2017-09-19T16:04:21.989Z,12.60
2017-09-19T16:06:48.399Z,12.50
2017-09-19T16:09:14.843Z,12.50
2017-09-19T16:11:41.269Z,12.50
2017-09-19T16:14:07.714Z,12.50
2017-09-19T16:16:34.215Z,12.50
2017-09-19T16:19:00.660Z,12.40
2017-09-19T16:21:27.130Z,12.30
2017-09-19T16:23:54.286Z,12.00
2017-09-19T16:26:20.773Z,12.00
2017-09-19T16:28:47.242Z,12.00
2017-09-19T16:31:13.710Z,12.00
2017-09-19T16:33:40.127Z,12.10
2017-09-19T16:36:06.566Z,12.00
2017-09-19T16:38:32.985Z,12.10
2017-09-19T16:40:59.511Z,12.10
2017-09-19T16:43:26.688Z,11.90
2017-09-19T16:45:53.115Z,11.90
2017-09-19T16:48:19.585Z,11.90
2017-09-19T16:50:46.017Z,11.90
2017-09-19T16:53:12.486Z,11.90
2017-09-19T16:55:39.746Z,11.90
2017-09-19T16:58:06.217Z,11.90
2017-09-19T17:00:32.745Z,11.90
2017-09-19T17:02:59.245Z,11.90
2017-09-19T17:05:26.404Z,11.90
2017-09-19T17:07:52.831Z,11.90
2017-09-19T17:10:20.051Z,11.70
2017-09-19T17:12:46.519Z,11.70
2017-09-19T17:15:13.718Z,11.70
2017-09-19T17:17:40.237Z,11.60
2017-09-19T17:20:06.723Z,11.70
2017-09-19T17:22:33.946Z,11.60
2017-09-19T17:25:00.408Z,11.60
2017-09-19T17:27:26.824Z,11.60
2017-09-19T17:29:53.409Z,11.60
2017-09-19T17:32:19.841Z,11.50
2017-09-19T17:34:46.330Z,11.40
2017-09-19T17:37:12.790Z,11.30
2017-09-19T17:39:40.023Z,11.30
2017-09-19T17:42:07.206Z,11.20
2017-09-19T17:44:33.681Z,11.20
2017-09-19T17:47:00.161Z,11.10
2017-09-19T17:49:27.334Z,11.00
2017-09-19T17:51:53.824Z,10.90
2017-09-19T17:54:20.250Z,11.00
2017-09-19T17:56:46.707Z,10.90
2017-09-19T17:59:13.165Z,10.90
2017-09-19T18:01:39.610Z,10.80
2017-09-19T18:04:06.103Z,10.70
2017-09-19T18:06:32.582Z,10.70
2017-09-19T18:08:59.127Z,10.70
2017-09-19T18:11:25.614Z,10.70
2017-09-19T18:13:52.853Z,10.70
2017-09-19T18:16:20.067Z,10.60
2017-09-19T18:18:46.502Z,10.60
2017-09-19T18:21:12.999Z,10.50
2017-09-19T18:23:39.528Z,10.50
2017-09-19T18:26:05.984Z,10.50
2017-09-19T18:28:32.416Z,10.50
2017-09-19T18:30:58.903Z,10.50
2017-09-19T18:33:26.103Z,10.40
2017-09-19T18:35:52.623Z,10.40
2017-09-19T18:38:19.145Z,10.50
2017-09-19T18:40:45.614Z,10.40
2017-09-19T18:43:12.200Z,10.40
2017-09-19T18:45:39.387Z,10.50
2017-09-19T18:48:05.893Z,10.50
2017-09-19T18:50:33.120Z,9.90
2017-09-19T18:52:59.622Z,9.90
2017-09-19T18:55:26.149Z,9.50
2017-09-19T18:57:52.729Z,9.60
2017-09-19T19:00:19.149Z,9.50
2017-09-19T19:02:45.931Z,9.20
2017-09-19T19:05:14.076Z,9.10
2017-09-19T19:07:40.667Z,9.10
2017-09-19T19:10:07.187Z,9.20
2017-09-19T19:12:33.685Z,9.40
2017-09-19T19:15:00.190Z,9.50
2017-09-19T19:17:26.661Z,9.60
2017-09-19T19:19:53.841Z,9.70
2017-09-19T19:22:20.276Z,9.70
2017-09-19T19:24:46.777Z,9.70
2017-09-19T19:27:14.034Z,9.70
2017-09-19T19:29:41.205Z,9.80
2017-09-19T19:32:07.677Z,9.80
2017-09-19T19:34:34.139Z,9.80
2017-09-19T19:37:00.672Z,9.70
2017-09-19T19:39:27.151Z,9.70
2017-09-19T19:41:53.609Z,9.70
2017-09-19T19:44:20.078Z,9.70
2017-09-19T19:46:46.510Z,9.60
2017-09-19T19:49:13.735Z,9.70
2017-09-19T19:51:40.945Z,9.70
2017-09-19T19:54:07.446Z,9.70
2017-09-19T19:56:34.609Z,9.70
2017-09-19T19:59:01.841Z,9.60
2017-09-19T20:01:29.044Z,9.60
2017-09-19T20:03:55.520Z,9.60
2017-09-19T20:06:22.069Z,9.70
2017-09-19T20:08:49.246Z,9.70
2017-09-19T20:11:15.786Z,9.70
2017-09-19T20:13:42.276Z,9.70
2017-09-19T20:16:09.505Z,9.70
2017-09-19T20:18:35.970Z,9.70
2017-09-19T20:21:02.409Z,9.80
2017-09-19T20:23:29.629Z,9.70
2017-09-19T20:25:56.074Z,9.70
2017-09-19T20:28:22.586Z,9.60
2017-09-19T20:30:49.066Z,9.60
2017-09-19T20:33:16.263Z,9.60
2017-09-19T20:35:42.732Z,9.60
2017-09-19T20:38:09.223Z,9.70
2017-09-19T20:40:35.724Z,9.70
2017-09-19T20:43:02.209Z,9.70
2017-09-19T20:45:28.768Z,9.70
2017-09-19T20:47:55.420Z,9.50
2017-09-19T20:50:22.179Z,9.70
2017-09-19T20:52:48.724Z,9.60
2017-09-19T20:55:15.403Z,9.50
2017-09-19T20:57:42.331Z,9.40
2017-09-19T21:00:09.143Z,9.60
2017-09-19T21:02:36.031Z,9.60
2017-09-19T21:05:09.384Z,9.60
2017-09-19T21:07:41.898Z,9.60
2017-09-19T21:10:15.268Z,9.50
2017-09-19T21:12:47.804Z,9.50
2017-09-19T21:15:21.387Z,9.50
2017-09-19T21:17:54.103Z,9.50
2017-09-19T21:20:20.489Z,9.50
2017-09-19T21:22:47.016Z,9.50
2017-09-19T21:25:13.540Z,9.40
2017-09-19T21:27:39.989Z,9.50
2017-09-19T21:30:07.230Z,9.40
2017-09-19T21:32:33.686Z,9.40
2017-09-19T21:35:00.248Z,9.40
2017-09-19T21:37:26.721Z,9.30
2017-09-19T21:39:53.170Z,9.40
2017-09-19T21:42:19.693Z,9.30
2017-09-19T21:44:46.129Z,9.30
2017-09-19T21:47:12.557Z,9.30
2017-09-19T21:49:39.023Z,9.30
2017-09-19T21:52:05.441Z,9.20
2017-09-19T21:54:31.923Z,9.20
2017-09-19T21:56:58.369Z,9.30
2017-09-19T21:59:24.848Z,9.30
2017-09-19T22:01:51.306Z,9.30
2017-09-19T22:04:17.818Z,9.30
2017-09-19T22:06:44.266Z,9.30
2017-09-19T22:09:10.741Z,9.30
2017-09-19T22:11:37.246Z,9.30
2017-09-19T22:14:04.433Z,9.30
2017-09-19T22:16:30.879Z,9.30
2017-09-19T22:18:57.297Z,9.30
2017-09-19T22:21:23.734Z,9.30
2017-09-19T22:23:50.157Z,9.40
2017-09-19T22:26:16.629Z,9.30
2017-09-19T22:28:43.883Z,9.40
2017-09-19T22:31:10.315Z,9.30
2017-09-19T22:33:36.752Z,9.30
2017-09-19T22:36:03.193Z,9.30
2017-09-19T22:38:29.616Z,9.40
2017-09-19T22:40:56.086Z,9.40
2017-09-19T22:43:22.545Z,9.40
2017-09-19T22:45:48.990Z,9.40
2017-09-19T22:48:16.205Z,9.40
2017-09-19T22:50:43.394Z,9.40
2017-09-19T22:53:09.826Z,9.30
2017-09-19T22:55:36.234Z,9.30
2017-09-19T22:58:02.745Z,9.30
2017-09-19T23:00:29.906Z,9.40
2017-09-19T23:02:56.356Z,9.30
2017-09-19T23:05:22.794Z,9.40
2017-09-19T23:07:49.257Z,9.40
2017-09-19T23:10:16.577Z,9.30
2017-09-19T23:12:42.993Z,9.30
2017-09-19T23:15:10.193Z,9.40
2017-09-19T23:17:36.629Z,9.40
2017-09-19T23:20:03.048Z,9.40
2017-09-19T23:22:29.561Z,9.40
2017-09-19T23:24:56.042Z,9.40
2017-09-19T23:27:22.494Z,9.40
2017-09-19T23:29:48.950Z,9.40
2017-09-19T23:32:15.410Z,9.30
2017-09-19T23:34:41.857Z,9.30
2017-09-19T23:37:08.278Z,9.30
2017-09-19T23:39:34.694Z,9.40
2017-09-19T23:42:01.138Z,9.40
2017-09-19T23:44:27.600Z,9.40
2017-09-19T23:46:54.059Z,9.30
2017-09-19T23:49:21.232Z,9.40
2017-09-19T23:51:47.685Z,9.30
2017-09-19T23:54:14.157Z,9.40
2017-09-19T23:56:40.610Z,9.40
2017-09-19T23:59:07.785Z,9.30
